Time;durP1;ratioP1;P1;durP2;ratioP2;P2;SDS_P1;SDS_P2;PMS_P1;PMS_P2;Temp;Humidity;BMP_temperature;BMP_pressure;BME280_temperature;BME280_humidity;BME280_pressure;Samples;Min_cycle;Max_cycle;Signal;HPM_P1;HPM_P2
2023/05/04 00:01:17;;;;;;;14.50;6.65;;;5.70;99.90;;;;;;5058172;28;20481;-61
2023/05/04 00:03:42;;;;;;;6.47;5.93;;;5.60;99.90;;;;;;5061073;28;20033;-61
2023/05/04 00:06:08;;;;;;;7.20;6.50;;;5.50;99.90;;;;;;5059847;28;20028;-62
2023/05/04 00:08:34;;;;;;;8.38;7.00;;;5.40;99.90;;;;;;5057665;28;20417;-62
2023/05/04 00:10:59;;;;;;;8.38;6.38;;;5.40;99.90;;;;;;5058519;28;20113;-62
2023/05/04 00:13:25;;;;;;;11.05;7.93;;;5.40;99.90;;;;;;5059188;28;20013;-59
2023/05/04 00:15:51;;;;;;;10.02;6.55;;;5.30;99.90;;;;;;5059302;27;20032;-61
2023/05/04 00:18:17;;;;;;;9.23;7.50;;;5.30;99.90;;;;;;5059222;28;20067;-60
2023/05/04 00:20:42;;;;;;;12.65;6.47;;;5.30;99.90;;;;;;5055978;28;20028;-61
2023/05/04 00:23:08;;;;;;;11.73;7.47;;;5.30;99.90;;;;;;5065045;28;20021;-59
2023/05/04 00:25:34;;;;;;;7.57;6.38;;;5.30;99.90;;;;;;5060412;28;20507;-62
2023/05/04 00:27:59;;;;;;;10.07;6.97;;;5.20;99.90;;;;;;5056030;28;20063;-61
2023/05/04 00:30:26;;;;;;;9.75;7.32;;;5.20;99.90;;;;;;5059047;28;20051;-60
2023/05/04 00:32:51;;;;;;;9.93;8.25;;;5.20;99.90;;;;;;5056790;28;20548;-62
2023/05/04 00:35:17;;;;;;;10.73;8.30;;;5.20;99.90;;;;;;5062078;28;20112;-61
2023/05/04 00:37:44;;;;;;;9.85;8.80;;;5.20;99.90;;;;;;5060886;28;20044;-61
2023/05/04 00:40:09;;;;;;;9.55;8.75;;;5.10;99.90;;;;;;5059479;28;20404;-60
2023/05/04 00:42:35;;;;;;;10.43;9.45;;;5.10;99.90;;;;;;5060309;28;20089;-59
2023/05/04 00:45:01;;;;;;;10.18;8.27;;;5.10;99.90;;;;;;5058506;28;20040;-62
2023/05/04 00:47:28;;;;;;;9.02;7.95;;;5.00;99.90;;;;;;5057294;28;20041;-62
2023/05/04 00:49:54;;;;;;;13.10;8.38;;;5.00;99.90;;;;;;5058267;28;20024;-59
2023/05/04 00:52:20;;;;;;;9.90;8.93;;;4.90;99.90;;;;;;5057303;28;20025;-60
2023/05/04 00:54:46;;;;;;;9.63;8.73;;;4.90;99.90;;;;;;5058488;28;20519;-63
2023/05/04 00:57:13;;;;;;;9.82;8.73;;;4.80;99.90;;;;;;5057827;28;20037;-59
2023/05/04 00:59:39;;;;;;;12.40;9.48;;;4.80;99.90;;;;;;5059717;28;20033;-60
2023/05/04 01:02:05;;;;;;;11.05;9.77;;;4.80;99.90;;;;;;5058652;28;20033;-61
2023/05/04 01:04:31;;;;;;;10.63;9.57;;;4.80;99.90;;;;;;5054248;28;20120;-60
2023/05/04 01:07:23;;;;;;;9.80;8.90;;;4.80;99.90;;;;;;5057019;28;20520;-61
2023/05/04 01:09:55;;;;;;;10.38;8.88;;;4.70;99.90;;;;;;5057112;28;20124;-61
2023/05/04 01:12:32;;;;;;;9.55;8.73;;;4.80;99.90;;;;;;5056175;28;20029;-59
2023/05/04 01:14:59;;;;;;;11.18;8.60;;;4.70;99.90;;;;;;5057784;28;20393;-61
2023/05/04 01:17:25;;;;;;;9.20;8.27;;;4.70;99.90;;;;;;5058079;28;20086;-60
2023/05/04 01:19:52;;;;;;;12.18;8.10;;;4.70;99.90;;;;;;5055737;28;20032;-59
2023/05/04 01:22:18;;;;;;;10.63;7.60;;;4.60;99.90;;;;;;5059574;28;20028;-60
2023/05/04 01:24:44;;;;;;;9.25;8.10;;;4.60;99.90;;;;;;5058032;28;20082;-61
2023/05/04 01:27:17;;;;;;;8.85;8.15;;;4.50;99.90;;;;;;5060519;28;20033;-63
2023/05/04 01:29:42;;;;;;;8.75;7.80;;;4.50;99.90;;;;;;5057082;28;20120;-60
2023/05/04 01:32:10;;;;;;;8.02;7.22;;;4.40;99.90;;;;;;5055527;28;20107;-61
2023/05/04 01:34:37;;;;;;;8.70;7.80;;;4.40;99.90;;;;;;5057407;28;20025;-60
2023/05/04 01:37:03;;;;;;;8.82;8.02;;;4.30;99.90;;;;;;5056748;27;20024;-61
2023/05/04 01:39:29;;;;;;;8.93;8.13;;;4.30;99.90;;;;;;5057028;28;20044;-61
2023/05/04 01:41:54;;;;;;;10.00;9.07;;;4.30;99.90;;;;;;5058814;28;20023;-61
2023/05/04 01:44:20;;;;;;;9.20;8.30;;;4.30;99.90;;;;;;5058782;28;20030;-62
2023/05/04 01:46:46;;;;;;;12.68;8.95;;;4.30;99.90;;;;;;5059628;28;20633;-59
2023/05/04 01:49:11;;;;;;;12.63;8.63;;;4.30;99.90;;;;;;5057376;28;20025;-60
2023/05/04 01:51:37;;;;;;;9.15;8.23;;;4.30;99.90;;;;;;5038151;28;20021;-61
2023/05/04 01:54:03;;;;;;;16.05;8.50;;;4.30;99.90;;;;;;5059531;28;20032;-61
2023/05/04 01:56:29;;;;;;;13.50;9.10;;;4.30;99.90;;;;;;5057844;28;20037;-58
2023/05/04 01:58:54;;;;;;;8.75;7.95;;;4.30;99.90;;;;;;5057192;28;20021;-60
2023/05/04 02:01:20;;;;;;;8.75;7.82;;;4.20;99.90;;;;;;5057826;28;20444;-59
2023/05/04 02:03:45;;;;;;;8.13;6.90;;;4.20;99.90;;;;;;5056686;28;20066;-59
2023/05/04 02:06:11;;;;;;;8.25;7.50;;;4.20;99.90;;;;;;5057185;28;20021;-61
2023/05/04 02:08:38;;;;;;;11.95;7.32;;;4.10;99.90;;;;;;5056529;28;20094;-59
2023/05/04 02:11:04;;;;;;;8.63;7.65;;;4.10;99.90;;;;;;5053171;28;20164;-59
2023/05/04 02:13:30;;;;;;;10.48;7.93;;;4.10;99.90;;;;;;5058166;28;20414;-62
2023/05/04 02:15:56;;;;;;;13.10;7.55;;;4.10;99.90;;;;;;5057531;28;20021;-61
2023/05/04 02:18:21;;;;;;;7.50;6.78;;;4.00;99.90;;;;;;5056151;28;20493;-61
2023/05/04 02:20:47;;;;;;;11.65;7.22;;;4.00;99.90;;;;;;5060929;28;20060;-59
2023/05/04 02:23:12;;;;;;;9.32;7.85;;;3.90;99.90;;;;;;5058144;28;20025;-60
2023/05/04 02:25:42;;;;;;;9.05;7.65;;;3.90;99.90;;;;;;5056008;28;20664;-60
2023/05/04 02:28:07;;;;;;;16.17;7.85;;;3.90;99.90;;;;;;5035805;28;20053;-58
2023/05/04 02:30:33;;;;;;;8.13;7.32;;;3.90;99.90;;;;;;5036601;28;20479;-61
2023/05/04 02:32:58;;;;;;;7.78;7.05;;;3.80;99.90;;;;;;5038842;28;20082;-62
2023/05/04 02:35:24;;;;;;;12.23;8.52;;;3.80;99.90;;;;;;5036886;28;20025;-62
2023/05/04 02:37:50;;;;;;;9.75;8.55;;;3.80;99.90;;;;;;5035593;28;20036;-60
2023/05/04 02:40:15;;;;;;;9.60;7.70;;;3.80;99.90;;;;;;5036884;28;20024;-61
2023/05/04 02:42:41;;;;;;;9.00;8.10;;;3.80;99.90;;;;;;5038543;28;20378;-60
2023/05/04 02:45:07;;;;;;;8.80;7.30;;;3.70;99.90;;;;;;5036651;28;20033;-61
2023/05/04 02:47:33;;;;;;;8.73;7.82;;;3.70;99.90;;;;;;5042293;28;20146;-63
2023/05/04 02:49:58;;;;;;;9.02;7.95;;;3.70;99.90;;;;;;5041859;28;23801;-61
2023/05/04 02:52:24;;;;;;;8.10;7.05;;;3.70;99.90;;;;;;5039951;28;20401;-59
2023/05/04 02:54:50;;;;;;;9.15;8.02;;;3.70;99.90;;;;;;5039105;28;20027;-59
2023/05/04 02:57:15;;;;;;;12.32;8.35;;;3.70;99.90;;;;;;5041904;28;20068;-60
2023/05/04 02:59:41;;;;;;;10.82;8.05;;;3.70;99.90;;;;;;5043996;28;20128;-59
2023/05/04 03:02:06;;;;;;;8.65;7.43;;;3.70;99.90;;;;;;5039328;28;20033;-61
2023/05/04 03:04:32;;;;;;;7.25;6.57;;;3.70;99.90;;;;;;5041688;28;20028;-62
2023/05/04 03:06:58;;;;;;;8.52;7.13;;;3.70;99.90;;;;;;5042967;28;20029;-63
2023/05/04 03:09:23;;;;;;;9.45;7.50;;;3.60;99.90;;;;;;5038305;28;20108;-59
2023/05/04 03:11:49;;;;;;;10.23;7.63;;;3.60;99.90;;;;;;5038594;28;20075;-62
2023/05/04 03:14:15;;;;;;;15.20;8.27;;;3.60;99.90;;;;;;5039755;28;20036;-61
2023/05/04 03:16:40;;;;;;;9.13;7.07;;;3.60;99.90;;;;;;5041951;28;20025;-61
2023/05/04 03:19:06;;;;;;;8.85;7.30;;;3.50;99.90;;;;;;5041983;28;20491;-60
2023/05/04 03:21:32;;;;;;;7.53;6.22;;;3.40;99.90;;;;;;5043468;28;20094;-61
2023/05/04 03:23:58;;;;;;;23.35;8.55;;;3.40;99.90;;;;;;5042328;28;20025;-63
2023/05/04 03:26:23;;;;;;;8.20;7.20;;;3.30;99.90;;;;;;5039673;28;20072;-59
2023/05/04 03:28:49;;;;;;;9.95;7.65;;;3.20;99.90;;;;;;5039563;28;20480;-60
2023/05/04 03:31:15;;;;;;;7.30;6.60;;;3.20;99.90;;;;;;5037692;28;20092;-58
2023/05/04 03:33:40;;;;;;;13.55;9.25;;;3.20;99.90;;;;;;5040543;28;20385;-63
2023/05/04 03:36:08;;;;;;;8.93;7.93;;;3.20;99.90;;;;;;5044030;28;20017;-60
2023/05/04 03:38:33;;;;;;;10.43;7.28;;;3.20;99.90;;;;;;5039767;28;20099;-61
2023/05/04 03:40:59;;;;;;;8.02;7.25;;;3.20;99.90;;;;;;5041226;28;20420;-62
2023/05/04 03:43:24;;;;;;;11.75;7.38;;;3.20;99.90;;;;;;5039352;28;20036;-62
2023/05/04 03:45:50;;;;;;;8.70;7.18;;;3.20;99.90;;;;;;5038686;28;20521;-62
2023/05/04 03:48:15;;;;;;;10.10;7.82;;;3.20;99.90;;;;;;5040553;28;20159;-61
2023/05/04 03:50:41;;;;;;;8.25;7.30;;;3.20;99.90;;;;;;5038993;28;20022;-61
2023/05/04 03:53:07;;;;;;;13.65;7.95;;;3.20;99.90;;;;;;5038538;28;20490;-60
2023/05/04 03:55:32;;;;;;;11.50;9.10;;;3.20;99.90;;;;;;5036601;28;20048;-62
2023/05/04 03:57:58;;;;;;;9.05;8.15;;;3.20;99.90;;;;;;5039347;28;20098;-60
2023/05/04 04:00:23;;;;;;;9.80;8.38;;;3.20;99.90;;;;;;5036627;28;20049;-63
2023/05/04 04:02:49;;;;;;;8.70;7.80;;;3.30;99.90;;;;;;5037799;28;20049;-61
2023/05/04 04:05:15;;;;;;;8.63;7.82;;;3.30;99.90;;;;;;5039895;28;20524;-61
2023/05/04 04:07:40;;;;;;;9.52;7.75;;;3.30;99.90;;;;;;5038545;28;20053;-61
2023/05/04 04:10:07;;;;;;;9.85;7.72;;;3.30;99.90;;;;;;5040346;28;20020;-62
2023/05/04 04:12:32;;;;;;;9.07;7.35;;;3.40;99.90;;;;;;5039770;28;20037;-63
2023/05/04 04:14:58;;;;;;;13.85;7.82;;;3.40;99.90;;;;;;5037913;28;20024;-62
2023/05/04 04:17:24;;;;;;;10.23;7.88;;;3.40;99.90;;;;;;5037563;28;20045;-61
2023/05/04 04:19:49;;;;;;;8.60;7.65;;;3.40;99.90;;;;;;5037370;28;20148;-59
2023/05/04 04:22:15;;;;;;;10.43;8.23;;;3.50;99.90;;;;;;5041938;28;20366;-60
2023/05/04 04:24:41;;;;;;;11.65;7.15;;;3.50;99.90;;;;;;5040596;28;20032;-62
2023/05/04 04:27:06;;;;;;;8.15;7.35;;;3.60;99.90;;;;;;5037808;28;20375;-59
2023/05/04 04:29:34;;;;;;;8.20;7.40;;;3.60;99.90;;;;;;5039527;28;20040;-60
2023/05/04 04:32:00;;;;;;;9.85;8.02;;;3.60;99.90;;;;;;5039233;28;20115;-60
2023/05/04 04:34:26;;;;;;;9.63;7.10;;;3.60;99.90;;;;;;5037891;28;20151;-60
2023/05/04 04:36:51;;;;;;;9.13;7.38;;;3.60;99.90;;;;;;5038643;28;20112;-61
2023/05/04 04:39:17;;;;;;;8.48;6.88;;;3.70;99.90;;;;;;5040008;28;20533;-62
2023/05/04 04:41:43;;;;;;;8.52;7.68;;;3.80;99.90;;;;;;5037772;28;20032;-60
2023/05/04 04:44:08;;;;;;;7.45;6.68;;;3.90;99.90;;;;;;5037127;28;20117;-60
2023/05/04 04:46:34;;;;;;;12.57;6.80;;;3.90;99.90;;;;;;5039915;28;20017;-63
2023/05/04 04:48:59;;;;;;;8.48;6.90;;;3.90;99.90;;;;;;5038084;28;20036;-61
2023/05/04 04:51:25;;;;;;;10.38;7.15;;;3.90;99.90;;;;;;5038721;28;20032;-59
2023/05/04 04:53:51;;;;;;;7.97;7.28;;;4.00;99.90;;;;;;5039695;28;20028;-61
2023/05/04 04:56:17;;;;;;;16.35;8.05;;;4.10;99.90;;;;;;5038208;28;20040;-61
2023/05/04 04:58:43;;;;;;;12.65;8.98;;;4.10;99.90;;;;;;5036582;28;20056;-61
2023/05/04 05:01:09;;;;;;;7.00;5.95;;;4.20;99.90;;;;;;5039259;28;20108;-62
2023/05/04 05:03:35;;;;;;;6.28;5.68;;;4.20;99.90;;;;;;5038046;28;20166;-62
2023/05/04 05:06:01;;;;;;;10.00;7.28;;;4.20;99.90;;;;;;5036974;28;20497;-63
2023/05/04 05:08:26;;;;;;;12.70;6.78;;;4.30;99.90;;;;;;5038259;28;20060;-60
2023/05/04 05:10:52;;;;;;;8.07;6.97;;;4.30;99.90;;;;;;5037415;28;20481;-61
2023/05/04 05:13:18;;;;;;;11.27;7.63;;;4.30;99.90;;;;;;5038365;28;20108;-59
2023/05/04 05:15:43;;;;;;;10.80;6.70;;;4.40;99.90;;;;;;5040666;28;20460;-59
2023/05/04 05:18:09;;;;;;;8.20;6.93;;;4.40;99.90;;;;;;5039915;28;21026;-59
2023/05/04 05:20:35;;;;;;;8.80;6.97;;;4.40;99.90;;;;;;5040618;28;20026;-61
2023/05/04 05:23:00;;;;;;;9.25;8.15;;;4.50;99.90;;;;;;5039722;28;20037;-61
2023/05/04 05:25:26;;;;;;;7.78;7.03;;;4.60;99.90;;;;;;5040791;28;20393;-59
2023/05/04 05:27:52;;;;;;;10.88;7.35;;;4.70;99.90;;;;;;5044180;28;20033;-60
2023/05/04 05:30:18;;;;;;;9.18;8.27;;;4.90;99.90;;;;;;5042725;28;20171;-59
2023/05/04 05:32:45;;;;;;;12.70;7.10;;;5.00;99.90;;;;;;5037895;28;20029;-60
2023/05/04 05:35:11;;;;;;;7.60;6.90;;;5.20;99.90;;;;;;5038884;28;20398;-61
2023/05/04 05:37:37;;;;;;;11.13;7.13;;;5.20;99.90;;;;;;5040144;28;20029;-60
2023/05/04 05:40:06;;;;;;;10.60;7.38;;;5.40;99.90;;;;;;5036734;28;20112;-60
2023/05/04 05:42:32;;;;;;;12.05;7.68;;;5.50;99.90;;;;;;5038362;28;20057;-61
2023/05/04 05:44:58;;;;;;;12.38;8.40;;;5.50;99.90;;;;;;5041385;28;20123;-63
2023/05/04 05:47:23;;;;;;;9.15;7.40;;;5.60;99.90;;;;;;5039907;28;20040;-60
2023/05/04 05:49:49;;;;;;;13.05;8.60;;;5.60;99.90;;;;;;5043255;28;20032;-61
2023/05/04 05:52:15;;;;;;;8.60;7.80;;;5.80;99.90;;;;;;5040847;28;20025;-61
2023/05/04 05:54:41;;;;;;;9.68;7.72;;;5.80;99.90;;;;;;5039073;28;20509;-61
2023/05/04 05:57:06;;;;;;;13.35;9.23;;;5.90;99.90;;;;;;5040806;28;20025;-62
2023/05/04 05:59:32;;;;;;;9.30;8.00;;;6.00;99.90;;;;;;5039032;28;20029;-59
2023/05/04 06:01:58;;;;;;;11.93;8.23;;;6.10;99.90;;;;;;5040225;28;20115;-60
2023/05/04 06:04:24;;;;;;;16.23;9.85;;;6.20;99.90;;;;;;5038595;28;20033;-61
2023/05/04 06:06:50;;;;;;;10.63;8.63;;;6.30;99.90;;;;;;5038148;28;20041;-60
2023/05/04 06:09:15;;;;;;;10.63;7.93;;;6.50;99.90;;;;;;5038742;28;20041;-62
2023/05/04 06:11:41;;;;;;;7.93;7.22;;;6.70;99.90;;;;;;5039449;28;20025;-61
2023/05/04 06:14:07;;;;;;;13.45;8.25;;;6.80;99.90;;;;;;5040032;28;20116;-62
2023/05/04 06:16:32;;;;;;;8.90;8.10;;;7.00;99.90;;;;;;5039236;28;20033;-61
2023/05/04 06:18:58;;;;;;;11.18;7.63;;;7.20;99.90;;;;;;5038247;28;20049;-61
2023/05/04 06:21:24;;;;;;;10.20;7.30;;;7.40;99.90;;;;;;5037936;28;20032;-60
2023/05/04 06:23:50;;;;;;;8.60;7.70;;;7.60;99.90;;;;;;5039701;28;20445;-62
2023/05/04 06:26:16;;;;;;;7.82;7.00;;;7.70;99.90;;;;;;5039111;28;20056;-61
2023/05/04 06:28:42;;;;;;;9.60;7.07;;;7.90;99.90;;;;;;5040777;28;20138;-61
2023/05/04 06:31:08;;;;;;;10.85;6.75;;;8.00;99.90;;;;;;5040240;28;20049;-60
2023/05/04 06:33:34;;;;;;;9.07;7.25;;;8.10;99.90;;;;;;5038805;28;20025;-62
2023/05/04 06:36:00;;;;;;;7.68;7.00;;;8.20;99.90;;;;;;5039425;28;20025;-64
2023/05/04 06:38:26;;;;;;;7.95;6.53;;;8.30;99.90;;;;;;5035625;28;20128;-62
2023/05/04 06:40:51;;;;;;;8.60;7.70;;;8.50;99.90;;;;;;5037268;28;20104;-61
2023/05/04 06:43:17;;;;;;;7.15;6.45;;;8.60;99.90;;;;;;5037999;28;20067;-61
2023/05/04 06:45:43;;;;;;;7.57;6.88;;;8.80;99.90;;;;;;5036728;28;20401;-63
2023/05/04 06:48:10;;;;;;;7.50;6.28;;;8.90;99.90;;;;;;5049348;28;20024;-62
2023/05/04 06:50:37;;;;;;;7.32;6.30;;;9.00;99.90;;;;;;5055733;28;20029;-61
2023/05/04 06:53:08;;;;;;;13.20;6.78;;;9.10;99.90;;;;;;5058977;28;20029;-60
2023/05/04 06:55:37;;;;;;;8.25;7.47;;;9.30;99.90;;;;;;5060704;28;20404;-59
2023/05/04 06:58:03;;;;;;;9.07;7.07;;;9.40;99.90;;;;;;5059207;28;20505;-64
2023/05/04 07:00:30;;;;;;;7.72;6.47;;;9.50;99.90;;;;;;5059046;28;20037;-62
2023/05/04 07:02:56;;;;;;;6.90;6.15;;;9.60;99.90;;;;;;5058343;28;20032;-62
2023/05/04 07:05:22;;;;;;;7.88;7.13;;;9.70;99.90;;;;;;5061761;28;20041;-62
2023/05/04 07:07:49;;;;;;;9.82;7.03;;;9.90;99.90;;;;;;5058686;28;20024;-60
2023/05/04 07:10:15;;;;;;;8.60;6.85;;;10.10;99.90;;;;;;5055362;28;20028;-62
2023/05/04 07:12:41;;;;;;;11.60;6.10;;;10.30;99.90;;;;;;5059845;28;20021;-60
2023/05/04 07:15:07;;;;;;;6.65;5.80;;;10.40;99.90;;;;;;5057388;28;20024;-62
2023/05/04 07:17:33;;;;;;;10.55;6.53;;;10.60;99.90;;;;;;5057830;28;20037;-62
2023/05/04 07:20:01;;;;;;;6.88;6.18;;;10.70;99.90;;;;;;5057664;28;20048;-62
2023/05/04 07:22:28;;;;;;;9.52;6.15;;;10.90;99.90;;;;;;5060460;28;20033;-61
2023/05/04 07:24:56;;;;;;;6.45;5.95;;;11.10;99.90;;;;;;5059555;28;20036;-61
2023/05/04 07:27:21;;;;;;;6.95;5.32;;;11.20;99.90;;;;;;5056693;28;20095;-62
2023/05/04 07:29:47;;;;;;;5.80;5.30;;;11.30;99.90;;;;;;5055967;28;20041;-60
2023/05/04 07:32:12;;;;;;;7.35;5.60;;;11.50;99.90;;;;;;5061152;28;20028;-60
2023/05/04 07:34:38;;;;;;;7.05;5.50;;;11.70;99.90;;;;;;5062045;28;20013;-61
2023/05/04 07:37:04;;;;;;;6.13;5.25;;;11.90;99.90;;;;;;5060806;28;20021;-60
2023/05/04 07:39:30;;;;;;;17.02;4.80;;;12.00;99.90;;;;;;5065081;28;20086;-62
2023/05/04 07:41:55;;;;;;;8.18;5.15;;;12.20;99.90;;;;;;5061912;28;20056;-61
2023/05/04 07:44:21;;;;;;;6.47;5.20;;;12.30;99.90;;;;;;5063337;28;20036;-61
2023/05/04 07:46:47;;;;;;;8.10;5.00;;;12.50;99.90;;;;;;5061235;28;20021;-62
2023/05/04 07:49:12;;;;;;;7.45;4.95;;;12.70;99.90;;;;;;5059209;28;20029;-60
2023/05/04 07:51:38;;;;;;;7.32;5.25;;;12.90;99.90;;;;;;5058930;28;20036;-62
2023/05/04 07:54:04;;;;;;;6.15;5.25;;;13.10;99.90;;;;;;5062928;28;20102;-64
2023/05/04 07:56:30;;;;;;;6.18;4.78;;;13.20;99.90;;;;;;5061534;28;20038;-60
2023/05/04 07:58:55;;;;;;;5.78;4.57;;;13.30;99.80;;;;;;5060772;28;20111;-60
2023/05/04 08:01:21;;;;;;;7.57;4.63;;;13.30;95.60;;;;;;5063219;28;20035;-62
2023/05/04 08:03:47;;;;;;;6.43;4.93;;;13.40;94.80;;;;;;5061265;28;20808;-64
2023/05/04 08:06:13;;;;;;;6.97;5.10;;;13.50;96.40;;;;;;5061805;28;20036;-61
2023/05/04 08:08:38;;;;;;;5.60;4.97;;;13.70;96.10;;;;;;5060179;28;20451;-60
2023/05/04 08:11:04;;;;;;;4.85;4.43;;;13.70;93.90;;;;;;5062041;28;20098;-63
2023/05/04 08:13:30;;;;;;;8.05;4.47;;;13.80;95.20;;;;;;5059668;28;20025;-62
2023/05/04 08:15:59;;;;;;;5.47;4.97;;;14.00;92.90;;;;;;5060477;28;20087;-60
2023/05/04 08:18:26;;;;;;;7.05;5.25;;;14.00;99.00;;;;;;5062230;28;20113;-61
2023/05/04 08:20:52;;;;;;;6.90;5.30;;;14.10;94.90;;;;;;5060666;28;20445;-60
2023/05/04 08:23:18;;;;;;;7.88;5.45;;;14.20;99.00;;;;;;5064261;28;20082;-62
2023/05/04 08:25:43;;;;;;;10.73;4.97;;;14.20;99.00;;;;;;5058498;28;20025;-61
2023/05/04 08:28:09;;;;;;;4.93;4.30;;;14.30;97.60;;;;;;5055709;28;20033;-64
2023/05/04 08:30:36;;;;;;;6.78;5.05;;;14.40;96.60;;;;;;5055084;28;20460;-63
2023/05/04 08:33:02;;;;;;;8.80;5.07;;;14.40;91.80;;;;;;5056172;28;20064;-62
2023/05/04 08:35:27;;;;;;;9.05;4.88;;;14.50;93.50;;;;;;5057267;28;20052;-60
2023/05/04 08:37:53;;;;;;;9.98;5.10;;;14.60;91.20;;;;;;5059371;28;20044;-61
2023/05/04 08:40:19;;;;;;;6.28;4.57;;;14.70;90.70;;;;;;5058684;28;20103;-61
2023/05/04 08:42:49;;;;;;;6.43;4.43;;;14.90;91.30;;;;;;5061571;28;20029;-62
2023/05/04 08:45:16;;;;;;;7.95;5.78;;;15.00;93.10;;;;;;5059537;28;20033;-63
2023/05/04 08:47:42;;;;;;;10.77;5.30;;;15.10;95.00;;;;;;5055347;28;20060;-61
2023/05/04 08:50:09;;;;;;;8.60;4.70;;;15.20;92.30;;;;;;5057857;28;20028;-61
2023/05/04 08:52:37;;;;;;;7.15;5.20;;;15.30;89.90;;;;;;5058168;28;20039;-63
2023/05/04 08:55:04;;;;;;;7.70;4.55;;;15.50;93.40;;;;;;5056666;28;20600;-60
2023/05/04 08:57:30;;;;;;;6.80;4.13;;;15.60;90.00;;;;;;5058221;28;20033;-62
2023/05/04 08:59:57;;;;;;;6.63;4.47;;;15.80;91.10;;;;;;5060469;28;20059;-61
2023/05/04 09:02:23;;;;;;;11.38;5.28;;;16.00;86.50;;;;;;5055548;28;20029;-60
2023/05/04 09:04:50;;;;;;;6.47;4.97;;;16.00;88.20;;;;;;5057172;28;20028;-61
2023/05/04 09:07:20;;;;;;;5.43;4.60;;;16.30;90.20;;;;;;5056785;28;20032;-63
2023/05/04 09:09:47;;;;;;;6.28;4.50;;;16.90;82.60;;;;;;5056613;28;20575;-61
2023/05/04 09:12:13;;;;;;;5.03;3.67;;;17.60;84.60;;;;;;5056746;28;20033;-60
2023/05/04 09:14:40;;;;;;;4.65;4.25;;;18.50;79.50;;;;;;5057684;28;20029;-59
2023/05/04 09:17:15;;;;;;;5.00;3.70;;;19.20;68.70;;;;;;5055550;28;20032;-60
2023/05/04 09:19:43;;;;;;;3.63;3.33;;;19.90;64.40;;;;;;5055833;28;20017;-61
2023/05/04 09:22:16;;;;;;;8.52;2.92;;;21.00;61.00;;;;;;5058744;28;20841;-62
2023/05/04 09:24:42;;;;;;;3.92;3.50;;;21.70;62.60;;;;;;5057818;28;20094;-59
2023/05/04 09:27:11;;;;;;;4.60;3.65;;;22.70;53.30;;;;;;5055396;28;20127;-59
2023/05/04 09:29:39;;;;;;;5.10;3.20;;;22.80;59.00;;;;;;5057702;28;20033;-60
2023/05/04 09:32:08;;;;;;;6.45;3.00;;;23.20;53.10;;;;;;5057029;28;20028;-62
2023/05/04 09:34:36;;;;;;;3.92;2.63;;;23.60;53.50;;;;;;5059946;28;20031;-60
2023/05/04 09:37:02;;;;;;;7.35;3.78;;;24.00;53.90;;;;;;5057181;28;20032;-60
2023/05/04 09:39:29;;;;;;;3.95;2.42;;;24.30;56.90;;;;;;5058627;28;20040;-59
2023/05/04 09:41:55;;;;;;;2.80;2.35;;;23.80;51.50;;;;;;5056814;28;20048;-59
2023/05/04 09:44:22;;;;;;;5.72;2.90;;;23.40;51.00;;;;;;5055333;28;20033;-59
2023/05/04 09:46:56;;;;;;;4.55;2.28;;;23.10;54.00;;;;;;5056564;28;20493;-60
2023/05/04 09:49:35;;;;;;;6.35;2.88;;;22.70;54.60;;;;;;5059580;28;20113;-61
2023/05/04 09:52:02;;;;;;;11.88;3.00;;;22.30;53.60;;;;;;5057273;28;20111;-59
2023/05/04 09:54:33;;;;;;;4.90;2.67;;;22.40;52.10;;;;;;5055372;28;20054;-60
2023/05/04 09:57:28;;;;;;;;;;;22.70;55.20;;;;;;5055361;28;20512;-61
2023/05/04 09:59:55;;;;;;;4.07;2.10;;;22.30;54.10;;;;;;5048676;28;20346;-62
2023/05/04 10:02:21;;;;;;;3.10;2.13;;;22.20;54.70;;;;;;5058486;28;20032;-59
2023/05/04 10:04:48;;;;;;;3.95;2.45;;;22.00;53.10;;;;;;5057153;28;20020;-60
2023/05/04 10:07:15;;;;;;;3.83;2.05;;;22.50;54.60;;;;;;5057150;28;20021;-62
2023/05/04 10:09:41;;;;;;;7.50;2.55;;;22.40;54.30;;;;;;5059997;28;20028;-60
2023/05/04 10:12:07;;;;;;;3.55;2.58;;;22.40;56.30;;;;;;5057392;28;20382;-63
2023/05/04 10:14:36;;;;;;;19.63;3.17;;;22.00;55.50;;;;;;5056606;28;20528;-59
2023/05/04 10:17:07;;;;;;;4.00;2.20;;;21.80;52.40;;;;;;5055219;28;20377;-62
2023/05/04 10:20:06;;;;;;;4.78;2.85;;;21.80;55.30;;;;;;5056502;28;20028;-60
2023/05/04 10:22:52;;;;;;;3.60;2.65;;;21.70;55.00;;;;;;5057171;28;20570;-62
2023/05/04 10:25:53;;;;;;;8.73;2.53;;;21.70;51.40;;;;;;5049240;28;20550;-62
2023/05/04 10:28:44;;;;;;;3.40;2.83;;;21.60;57.50;;;;;;5054455;28;20191;-59
2023/05/04 10:31:10;;;;;;;5.28;2.35;;;21.40;57.30;;;;;;5053034;28;20029;-61
2023/05/04 10:33:40;;;;;;;5.07;3.08;;;21.10;54.80;;;;;;5061005;28;20031;-60
2023/05/04 10:36:06;;;;;;;10.88;3.03;;;21.30;52.30;;;;;;5058375;28;20033;-59
2023/05/04 10:38:34;;;;;;;3.45;2.45;;;21.30;57.50;;;;;;5055166;28;20021;-60
2023/05/04 10:40:59;;;;;;;4.93;2.97;;;21.20;54.90;;;;;;5054646;28;20033;-60
2023/05/04 10:43:27;;;;;;;6.85;2.70;;;21.20;56.60;;;;;;5057182;28;20025;-59
2023/05/04 10:45:53;;;;;;;3.33;2.60;;;21.30;55.70;;;;;;5052044;28;20108;-60
2023/05/04 10:48:19;;;;;;;5.22;2.35;;;21.60;55.40;;;;;;5056859;28;20171;-61
2023/05/04 10:50:49;;;;;;;8.93;2.30;;;21.90;55.20;;;;;;5056813;28;20039;-61
2023/05/04 10:53:16;;;;;;;2.47;2.13;;;22.50;55.40;;;;;;5053793;28;20032;-61
2023/05/04 10:55:44;;;;;;;3.35;2.10;;;22.70;53.30;;;;;;5056787;28;20488;-60
2023/05/04 10:58:13;;;;;;;3.92;1.77;;;22.30;53.40;;;;;;5054488;28;20093;-60
2023/05/04 11:00:44;;;;;;;2.67;1.77;;;22.00;52.80;;;;;;5055308;28;20424;-59
2023/05/04 11:03:13;;;;;;;3.80;2.13;;;22.00;52.10;;;;;;5053703;28;20033;-58
2023/05/04 11:05:42;;;;;;;4.85;2.33;;;22.20;51.50;;;;;;5057002;28;20074;-62
2023/05/04 11:08:19;;;;;;;5.85;2.13;;;22.30;51.70;;;;;;5060532;28;20040;-59
2023/05/04 11:10:46;;;;;;;5.05;1.98;;;22.30;56.40;;;;;;5061071;28;20024;-61
2023/05/04 11:13:13;;;;;;;4.40;1.98;;;22.20;50.00;;;;;;5060507;28;20455;-61
2023/05/04 11:15:49;;;;;;;2.65;2.03;;;22.20;54.20;;;;;;5062869;28;20040;-61
2023/05/04 11:18:24;;;;;;;6.43;2.00;;;22.20;56.30;;;;;;5059277;28;20028;-61
2023/05/04 11:20:50;;;;;;;2.47;1.92;;;22.00;53.30;;;;;;5060985;28;20037;-59
2023/05/04 11:23:15;;;;;;;4.78;1.63;;;21.80;53.20;;;;;;5058384;28;20047;-60
2023/05/04 11:25:41;;;;;;;2.95;2.00;;;21.70;54.30;;;;;;5059275;28;20016;-61
2023/05/04 11:28:07;;;;;;;2.15;1.52;;;21.70;54.40;;;;;;5061387;28;20137;-61
2023/05/04 11:30:34;;;;;;;4.38;2.00;;;21.70;58.00;;;;;;5061089;28;20067;-60
2023/05/04 11:33:11;;;;;;;5.40;2.28;;;21.70;56.80;;;;;;5060553;28;20430;-60
2023/05/04 11:35:37;;;;;;;4.13;2.17;;;21.60;54.50;;;;;;5058623;28;20112;-59
2023/05/04 11:38:02;;;;;;;3.90;2.05;;;21.60;56.10;;;;;;5057453;28;20025;-60
2023/05/04 11:40:28;;;;;;;5.85;2.10;;;21.60;53.60;;;;;;5061614;28;20025;-62
2023/05/04 11:42:56;;;;;;;3.33;1.70;;;21.60;56.50;;;;;;5057319;28;20043;-59
2023/05/04 11:45:22;;;;;;;3.70;2.00;;;21.50;52.60;;;;;;5058497;28;20119;-64
2023/05/04 11:47:50;;;;;;;2.38;1.45;;;21.60;52.40;;;;;;5058112;28;20098;-61
2023/05/04 11:50:18;;;;;;;2.92;2.03;;;21.80;51.60;;;;;;5059330;28;20025;-63
2023/05/04 11:52:44;;;;;;;3.85;1.55;;;22.00;55.40;;;;;;5058045;28;20078;-60
2023/05/04 11:55:11;;;;;;;2.22;1.88;;;22.10;51.30;;;;;;5060422;28;20033;-60
2023/05/04 11:57:37;;;;;;;3.13;2.00;;;22.40;52.10;;;;;;5057753;28;20070;-62
2023/05/04 12:00:05;;;;;;;3.88;1.67;;;22.40;53.30;;;;;;5066133;28;20033;-64
2023/05/04 12:02:30;;;;;;;4.68;1.80;;;22.30;51.70;;;;;;5058570;28;20029;-61
2023/05/04 12:04:56;;;;;;;3.33;1.80;;;22.30;50.20;;;;;;5058601;28;20052;-62
2023/05/04 12:07:22;;;;;;;2.50;1.40;;;22.20;51.00;;;;;;5059841;28;20142;-61
2023/05/04 12:09:48;;;;;;;3.58;1.60;;;22.20;50.80;;;;;;5059462;28;20501;-62
2023/05/04 12:12:15;;;;;;;5.07;2.05;;;22.10;47.60;;;;;;5058847;28;20059;-63
2023/05/04 12:14:52;;;;;;;3.13;1.50;;;22.10;54.40;;;;;;5059508;28;20085;-63
2023/05/04 12:17:19;;;;;;;7.85;1.85;;;22.00;52.50;;;;;;5055557;28;20029;-61
2023/05/04 12:19:55;;;;;;;5.40;1.48;;;21.90;53.30;;;;;;5057438;28;20021;-60
2023/05/04 12:22:34;;;;;;;2.50;1.23;;;21.70;53.40;;;;;;5060748;28;20640;-63
2023/05/04 12:25:00;;;;;;;2.65;1.63;;;21.60;52.80;;;;;;5057675;28;20035;-62
2023/05/04 12:27:26;;;;;;;3.08;1.27;;;21.60;50.70;;;;;;5056833;28;20032;-62
2023/05/04 12:29:52;;;;;;;4.68;1.30;;;21.60;51.00;;;;;;5058150;28;20056;-61
2023/05/04 12:32:18;;;;;;;2.58;1.27;;;21.70;51.00;;;;;;5059020;28;20087;-60
2023/05/04 12:34:43;;;;;;;1.65;1.35;;;21.70;53.80;;;;;;5058006;28;20031;-60
2023/05/04 12:37:10;;;;;;;2.28;1.20;;;21.80;48.40;;;;;;5060113;28;20017;-60
2023/05/04 12:39:36;;;;;;;1.50;1.08;;;21.80;50.40;;;;;;5062484;28;20075;-62
2023/05/04 12:42:03;;;;;;;1.80;1.10;;;21.80;48.60;;;;;;5059465;28;20052;-61
2023/05/04 12:44:29;;;;;;;3.17;1.23;;;21.70;49.30;;;;;;5060407;28;20040;-65
2023/05/04 12:46:55;;;;;;;3.67;1.40;;;21.70;51.50;;;;;;5057989;28;20435;-63
2023/05/04 12:49:21;;;;;;;2.60;1.48;;;21.60;54.20;;;;;;5060829;28;20033;-63